createdAt,value
2022-10-22T00:00:22.954Z,102182.09
2022-10-22T00:01:25.460Z,102174.34
2022-10-22T00:02:27.376Z,102176.85
2022-10-22T00:03:29.151Z,102176.85
2022-10-22T00:04:34.512Z,102178.48
2022-10-22T00:06:55.860Z,102172.48
2022-10-22T00:07:57.649Z,102175.89
2022-10-22T00:08:59.508Z,102168.14
2022-10-22T00:10:01.307Z,102170.73
2022-10-22T00:11:03.008Z,102172.40
2022-10-22T00:12:04.806Z,102175.81
2022-10-22T00:13:06.509Z,102167.98
2022-10-22T00:14:08.335Z,102171.37
2022-10-22T00:15:10.350Z,102162.73
2022-10-22T00:16:12.361Z,102160.95
2022-10-22T00:17:14.166Z,102160.95
2022-10-22T00:18:15.962Z,102160.88
2022-10-22T00:19:17.756Z,102167.00
2022-10-22T00:20:19.594Z,102160.16
2022-10-22T00:21:21.386Z,102167.08
2022-10-22T00:22:23.194Z,102162.81
2022-10-22T00:23:24.996Z,102155.86
2022-10-22T00:24:26.781Z,102156.73
2022-10-22T00:25:28.635Z,102158.52
2022-10-22T00:26:30.424Z,102159.40
2022-10-22T00:27:32.126Z,102155.94
2022-10-22T00:28:33.939Z,102156.81
2022-10-22T00:29:35.722Z,102151.64
2022-10-22T00:30:37.559Z,102151.64
2022-10-22T00:31:39.423Z,102153.42
2022-10-22T00:32:41.660Z,102149.97
2022-10-22T00:33:43.755Z,102151.64
2022-10-22T00:34:45.556Z,102154.23
2022-10-22T00:35:47.389Z,102149.05
2022-10-22T00:36:49.298Z,102150.84
2022-10-22T00:37:51.097Z,102156.89
2022-10-22T00:38:52.902Z,102151.72
2022-10-22T00:39:54.708Z,102155.30
2022-10-22T00:40:56.613Z,102155.30
2022-10-22T00:41:58.355Z,102162.14
2022-10-22T00:43:00.155Z,102154.38
2022-10-22T00:44:01.962Z,102150.92
2022-10-22T00:45:03.656Z,102162.06
2022-10-22T00:46:05.784Z,102161.27
2022-10-22T00:47:07.624Z,102153.51
2022-10-22T00:48:09.431Z,102155.21
2022-10-22T00:49:11.235Z,102148.26
2022-10-22T00:50:13.032Z,102149.05
2022-10-22T00:51:14.886Z,102146.47
2022-10-22T00:52:16.698Z,102142.13
2022-10-22T00:53:18.508Z,102142.06
2022-10-22T00:54:20.328Z,102146.31
2022-10-22T00:55:22.154Z,102146.23
2022-10-22T00:56:24.344Z,102147.95
2022-10-22T00:57:26.167Z,102152.24
2022-10-22T00:58:27.987Z,102151.33
2022-10-22T00:59:29.825Z,102147.87
2022-10-22T01:00:31.823Z,102141.83
2022-10-22T01:01:33.834Z,102152.16
2022-10-22T01:02:35.684Z,102140.84
2022-10-22T01:03:37.549Z,102148.59
2022-10-22T01:04:39.364Z,102145.93
2022-10-22T01:05:41.190Z,102145.93
2022-10-22T01:06:43.081Z,102145.05
2022-10-22T01:07:44.914Z,102152.01
2022-10-22T01:08:46.789Z,102146.84
2022-10-22T01:09:48.662Z,102146.91
2022-10-22T01:10:50.478Z,102145.13
2022-10-22T01:11:52.383Z,102150.22
2022-10-22T01:12:54.222Z,102152.88
2022-10-22T01:13:56.564Z,102148.52
2022-10-22T01:14:58.405Z,102145.05
2022-10-22T01:16:00.234Z,102138.17
2022-10-22T01:17:02.091Z,102141.59
2022-10-22T01:18:03.995Z,102139.01
2022-10-22T01:19:05.828Z,102144.09
2022-10-22T01:20:08.447Z,102145.84
2022-10-22T01:21:10.274Z,102151.02
2022-10-22T01:22:12.170Z,102158.77
2022-10-22T01:23:13.990Z,102146.69
2022-10-22T01:24:15.824Z,102152.65
2022-10-22T01:25:17.658Z,102152.80
2022-10-22T01:26:19.564Z,102153.68
2022-10-22T01:27:21.545Z,102150.14
2022-10-22T01:28:23.383Z,102153.60
2022-10-22T01:29:25.196Z,102152.65
2022-10-22T01:30:27.015Z,102155.23
2022-10-22T01:31:28.805Z,102150.94
2022-10-22T01:32:30.684Z,102150.94
2022-10-22T01:33:32.582Z,102148.28
2022-10-22T01:34:34.402Z,102144.89
2022-10-22T01:35:36.229Z,102147.48
2022-10-22T01:36:38.184Z,102144.89
2022-10-22T01:37:40.255Z,102149.19
2022-10-22T01:38:42.279Z,102143.11
2022-10-22T01:39:44.122Z,102141.36
2022-10-22T01:40:45.943Z,102142.16
2022-10-22T01:41:47.781Z,102148.13
2022-10-22T01:42:49.634Z,102145.53
2022-10-22T01:43:51.480Z,102148.13
2022-10-22T01:44:53.305Z,102150.70
2022-10-22T01:45:55.135Z,102152.49
2022-10-22T01:46:57.059Z,102152.49
2022-10-22T01:47:58.923Z,102154.16
2022-10-22T01:49:00.764Z,102154.28
2022-10-22T01:50:02.584Z,102156.86
2022-10-22T01:51:04.404Z,102154.36
2022-10-22T01:52:06.235Z,102155.23
2022-10-22T01:53:08.121Z,102161.20
2022-10-22T01:54:09.949Z,102153.45
2022-10-22T01:55:11.767Z,102158.62
2022-10-22T01:56:14.098Z,102149.98
2022-10-22T01:57:15.913Z,102158.62
2022-10-22T01:58:17.783Z,102156.94
2022-10-22T01:59:19.614Z,102158.69
2022-10-22T02:00:21.752Z,102158.62
2022-10-22T02:01:23.589Z,102161.28
2022-10-22T02:02:25.418Z,102162.98
2022-10-22T02:03:27.318Z,102161.28
2022-10-22T02:04:29.247Z,102160.48
2022-10-22T02:05:31.087Z,102165.73
2022-10-22T02:06:32.934Z,102164.85
2022-10-22T02:07:34.790Z,102163.14
2022-10-22T02:08:36.699Z,102170.09
2022-10-22T02:09:38.472Z,102164.09
2022-10-22T02:10:40.291Z,102168.47
2022-10-22T02:11:42.123Z,102169.27
2022-10-22T02:12:44.120Z,102168.39
2022-10-22T02:13:45.938Z,102177.02
2022-10-22T02:14:48.255Z,102176.14
2022-10-22T02:15:50.082Z,102171.77
2022-10-22T02:16:51.912Z,102166.61
2022-10-22T02:17:53.748Z,102167.44
2022-10-22T02:18:55.612Z,102164.85
2022-10-22T02:19:57.469Z,102164.85
2022-10-22T02:20:59.570Z,102166.45
2022-10-22T02:22:01.440Z,102160.48
2022-10-22T02:23:03.255Z,102163.06
2022-10-22T02:24:05.121Z,102160.41
2022-10-22T02:25:06.956Z,102167.28
2022-10-22T02:26:09.073Z,102162.98
2022-10-22T02:27:10.914Z,102162.98
2022-10-22T02:28:12.721Z,102159.52
2022-10-22T02:29:14.609Z,102172.45
2022-10-22T02:31:18.988Z,102165.57
2022-10-22T02:32:20.805Z,102159.45
2022-10-22T02:33:22.624Z,102166.37
2022-10-22T02:34:24.489Z,102165.41
2022-10-22T02:35:26.380Z,102158.53
2022-10-22T02:36:28.188Z,102167.28
2022-10-22T02:37:30.012Z,102167.28
2022-10-22T02:38:31.837Z,102160.24
2022-10-22T02:39:33.722Z,102164.61
2022-10-22T02:40:35.560Z,102173.25
2022-10-22T02:41:37.374Z,102168.95
2022-10-22T02:42:39.749Z,102164.61
2022-10-22T02:43:41.844Z,102165.41
2022-10-22T02:44:43.722Z,102164.61
2022-10-22T02:45:45.560Z,102163.70
2022-10-22T02:46:47.376Z,102166.29
2022-10-22T02:47:49.307Z,102161.12
2022-10-22T02:48:51.126Z,102166.29
2022-10-22T02:49:53.008Z,102173.25
2022-10-22T02:50:55.012Z,102171.45
2022-10-22T02:51:56.846Z,102168.00
2022-10-22T02:52:58.679Z,102173.16
2022-10-22T02:54:00.592Z,102162.83
2022-10-22T02:55:02.480Z,102170.58
2022-10-22T02:56:04.402Z,102171.38
2022-10-22T02:57:06.232Z,102173.16
2022-10-22T02:58:08.073Z,102179.21
2022-10-22T02:59:09.884Z,102176.63
2022-10-22T03:00:12.669Z,102173.16
2022-10-22T03:01:16.158Z,102180.13
2022-10-22T03:02:18.181Z,102174.95
2022-10-22T03:03:20.017Z,102179.29
2022-10-22T03:04:21.826Z,102175.83
2022-10-22T03:05:23.689Z,102184.38
2022-10-22T03:07:27.576Z,102179.13
2022-10-22T03:08:29.379Z,102174.77
2022-10-22T03:09:31.183Z,102173.97
2022-10-22T03:10:33.146Z,102174.77
2022-10-22T03:11:34.962Z,102179.93
2022-10-22T03:12:36.755Z,102177.34
2022-10-22T03:13:38.570Z,102173.88
2022-10-22T03:14:40.368Z,102164.42
2022-10-22T03:15:42.125Z,102170.50
2022-10-22T03:16:43.925Z,102164.34
2022-10-22T03:17:45.721Z,102172.92
2022-10-22T03:18:47.521Z,102172.92
2022-10-22T03:19:49.318Z,102168.56
2022-10-22T03:20:51.168Z,102165.97
2022-10-22T03:21:53.030Z,102166.84
2022-10-22T03:22:54.820Z,102165.09
2022-10-22T03:23:56.614Z,102168.48
2022-10-22T03:24:58.311Z,102170.27
2022-10-22T03:27:01.869Z,102173.56
2022-10-22T03:28:03.656Z,102171.86
2022-10-22T03:29:05.455Z,102172.69
2022-10-22T03:30:07.460Z,102170.91
2022-10-22T03:31:09.314Z,102164.03
2022-10-22T03:32:11.111Z,102170.91
2022-10-22T03:33:12.909Z,102169.11
2022-10-22T03:34:14.709Z,102169.11
2022-10-22T03:35:16.420Z,102167.36
2022-10-22T03:36:18.671Z,102170.74
2022-10-22T03:37:21.347Z,102172.53
2022-10-22T03:38:23.140Z,102174.20
2022-10-22T03:39:24.945Z,102167.36
2022-10-22T03:40:26.777Z,102175.11
2022-10-22T03:41:28.638Z,102164.78
2022-10-22T03:42:30.428Z,102171.62
2022-10-22T03:43:32.235Z,102175.98
2022-10-22T03:44:34.056Z,102170.83
2022-10-22T03:45:35.852Z,102173.41
2022-10-22T03:46:37.682Z,102164.03
2022-10-22T03:47:39.672Z,102173.56
2022-10-22T03:48:41.724Z,102164.94
2022-10-22T03:49:43.522Z,102169.27
2022-10-22T03:50:45.324Z,102169.27
2022-10-22T03:51:47.180Z,102173.56
2022-10-22T03:52:49.015Z,102178.73
2022-10-22T03:53:50.807Z,102170.98
2022-10-22T03:54:52.606Z,102171.86
2022-10-22T03:55:54.413Z,102173.64
2022-10-22T03:56:56.256Z,102175.35
2022-10-22T03:57:58.070Z,102164.94
2022-10-22T03:58:59.874Z,102176.15
2022-10-22T04:00:01.676Z,102177.86
2022-10-22T04:01:03.494Z,102174.36
2022-10-22T04:02:05.338Z,102177.03
2022-10-22T04:03:07.135Z,102179.61
2022-10-22T04:04:08.933Z,102176.15
2022-10-22T04:05:10.744Z,102180.44
2022-10-22T04:06:12.936Z,102177.86
2022-10-22T04:07:14.871Z,102181.31
2022-10-22T04:08:16.764Z,102183.91
2022-10-22T04:09:18.619Z,102185.61
2022-10-22T04:10:20.774Z,102190.77
2022-10-22T04:11:22.576Z,102189.87
2022-10-22T04:12:24.445Z,102182.95
2022-10-22T04:13:26.233Z,102191.58
2022-10-22T04:14:28.031Z,102188.11
2022-10-22T04:15:29.826Z,102187.20
2022-10-22T04:16:31.644Z,102190.70
2022-10-22T04:17:33.491Z,102188.98
2022-10-22T04:18:35.282Z,102185.61
2022-10-22T04:19:37.080Z,102188.19
2022-10-22T04:20:38.877Z,102189.95
2022-10-22T04:21:40.688Z,102187.36
2022-10-22T04:22:42.533Z,102191.73
2022-10-22T04:23:44.349Z,102185.69
2022-10-22T04:24:46.189Z,102190.94
2022-10-22T04:25:48.050Z,102190.94
2022-10-22T04:26:49.852Z,102195.27
2022-10-22T04:27:51.597Z,102196.11
2022-10-22T04:28:53.401Z,102196.11
2022-10-22T04:29:55.198Z,102189.15
2022-10-22T04:30:57.020Z,102199.48
2022-10-22T04:31:58.820Z,102195.19
2022-10-22T04:33:00.685Z,102196.02
2022-10-22T04:34:02.478Z,102197.78
2022-10-22T04:35:04.271Z,102197.86
2022-10-22T04:36:06.178Z,102200.44
2022-10-22T04:37:07.984Z,102196.19
2022-10-22T04:38:09.844Z,102202.23
2022-10-22T04:39:11.674Z,102196.19
2022-10-22T04:40:13.577Z,102198.77
2022-10-22T04:41:15.373Z,102195.36
2022-10-22T04:42:17.161Z,102199.73
2022-10-22T04:43:19.007Z,102206.69
2022-10-22T04:44:20.812Z,102203.19
2022-10-22T04:45:22.625Z,102204.89
2022-10-22T04:46:24.518Z,102207.48
2022-10-22T04:47:26.319Z,102202.31
2022-10-22T04:48:28.167Z,102204.89
2022-10-22T04:49:29.990Z,102210.94
2022-10-22T04:50:31.767Z,102203.19
2022-10-22T04:51:33.556Z,102204.97
2022-10-22T04:52:35.261Z,102205.05
2022-10-22T04:53:37.102Z,102205.13
2022-10-22T04:54:38.984Z,102204.34
2022-10-22T04:55:40.784Z,102206.20
2022-10-22T04:56:42.576Z,102206.28
2022-10-22T04:57:44.388Z,102205.45
2022-10-22T04:58:46.231Z,102204.66
2022-10-22T04:59:48.048Z,102197.78
2022-10-22T05:00:49.989Z,102200.44
2022-10-22T05:01:51.745Z,102206.52
2022-10-22T05:02:53.544Z,102209.27
2022-10-22T05:03:55.296Z,102206.76
2022-10-22T05:04:57.094Z,102203.42
2022-10-22T05:05:58.902Z,102199.24
2022-10-22T05:07:00.684Z,102198.48
2022-10-22T05:08:02.494Z,102204.73
2022-10-22T05:09:04.441Z,102211.77
2022-10-22T05:10:06.608Z,102212.72
2022-10-22T05:11:08.412Z,102214.66
2022-10-22T05:12:10.229Z,102209.64
2022-10-22T05:13:12.020Z,102217.64
2022-10-22T05:14:13.865Z,102213.50
2022-10-22T05:15:15.671Z,102219.81
2022-10-22T05:16:17.584Z,102212.20
2022-10-22T05:17:19.377Z,102219.28
2022-10-22T05:18:22.631Z,102214.34
2022-10-22T05:19:24.702Z,102223.23
2022-10-22T05:20:26.634Z,102218.29
2022-10-22T05:21:28.473Z,102220.23
2022-10-22T05:22:30.298Z,102215.28
2022-10-22T05:23:32.123Z,102214.67
2022-10-22T05:24:33.972Z,102217.59
2022-10-22T05:25:35.833Z,102210.92
2022-10-22T05:26:37.659Z,102218.11
2022-10-22T05:27:39.983Z,102218.48
2022-10-22T05:28:42.032Z,102222.19
2022-10-22T05:29:43.902Z,102210.30
2022-10-22T05:30:45.738Z,102214.05
2022-10-22T05:31:47.561Z,102213.39
2022-10-22T05:32:49.417Z,102211.97
2022-10-22T05:33:51.266Z,102219.15
2022-10-22T05:34:53.125Z,102209.00
2022-10-22T05:35:54.951Z,102209.21
2022-10-22T05:36:56.836Z,102218.07
2022-10-22T05:37:58.636Z,102207.95
2022-10-22T05:39:00.455Z,102208.09
2022-10-22T05:40:12.733Z,102216.95
2022-10-22T05:41:06.031Z,102212.84
2022-10-22T05:42:07.860Z,102219.95
2022-10-22T05:43:09.683Z,102222.69
2022-10-22T05:44:11.487Z,102220.23
2022-10-22T05:45:13.374Z,102224.74
2022-10-22T05:46:19.868Z,102217.98
2022-10-22T05:47:19.178Z,102220.70
2022-10-22T05:48:21.044Z,102213.06
2022-10-22T05:49:22.960Z,102217.58
2022-10-22T05:50:25.186Z,102220.51
2022-10-22T05:51:27.011Z,102220.51
2022-10-22T05:52:28.836Z,102218.05
2022-10-22T05:53:30.668Z,102215.66
2022-10-22T05:54:32.498Z,102220.97
2022-10-22T05:55:34.379Z,102222.02
2022-10-22T05:56:36.254Z,102225.62
2022-10-22T05:57:38.093Z,102224.06
2022-10-22T05:58:39.927Z,102226.85
2022-10-22T05:59:41.739Z,102224.39
2022-10-22T06:00:43.647Z,102227.11
2022-10-22T06:01:45.535Z,102233.31
2022-10-22T06:02:47.283Z,102223.00
2022-10-22T06:03:49.099Z,102230.09
2022-10-22T06:04:50.919Z,102224.23
2022-10-22T06:05:52.817Z,102226.11
2022-10-22T06:06:54.648Z,102221.95
2022-10-22T06:07:56.472Z,102227.33
2022-10-22T06:08:58.237Z,102225.67
2022-10-22T06:10:00.015Z,102225.02
2022-10-22T06:11:01.884Z,102229.47
2022-10-22T06:12:03.740Z,102219.14
2022-10-22T06:13:05.572Z,102234.00
2022-10-22T06:14:07.379Z,102222.86
2022-10-22T06:15:09.100Z,102229.97
2022-10-22T06:16:11.390Z,102226.59
2022-10-22T06:17:13.226Z,102226.71
2022-10-22T06:18:15.060Z,102223.36
2022-10-22T06:19:16.900Z,102229.52
2022-10-22T06:20:18.730Z,102230.52
2022-10-22T06:21:20.566Z,102229.77
2022-10-22T06:22:22.419Z,102220.50
2022-10-22T06:23:24.278Z,102220.50
2022-10-22T06:24:26.112Z,102222.34
2022-10-22T06:25:27.936Z,102221.55
2022-10-22T06:26:29.807Z,102219.11
2022-10-22T06:27:31.683Z,102214.85
2022-10-22T06:28:33.499Z,102216.63
2022-10-22T06:29:35.331Z,102215.84
2022-10-22T06:30:37.178Z,102211.62
2022-10-22T06:31:39.074Z,102215.20
2022-10-22T06:32:41.277Z,102212.61
2022-10-22T06:33:43.331Z,102204.06
2022-10-22T06:34:45.287Z,102200.78
2022-10-22T06:35:47.135Z,102200.78
2022-10-22T06:36:48.987Z,102207.00
2022-10-22T06:37:50.796Z,102212.27
2022-10-22T06:38:52.642Z,102212.38
2022-10-22T06:39:54.474Z,102215.03
2022-10-22T06:40:56.280Z,102209.02
2022-10-22T06:41:58.160Z,102218.62
2022-10-22T06:43:00.024Z,102211.73
2022-10-22T06:44:01.852Z,102201.39
2022-10-22T06:45:03.692Z,102204.87
2022-10-22T06:46:05.607Z,102196.25
2022-10-22T06:47:07.808Z,102205.92
2022-10-22T06:48:09.632Z,102201.68
2022-10-22T06:49:11.463Z,102203.52
2022-10-22T06:50:15.099Z,102200.02
2022-10-22T06:51:16.930Z,102202.72
2022-10-22T06:52:18.811Z,102200.13
2022-10-22T06:54:22.387Z,102197.64
2022-10-22T06:55:24.275Z,102193.41
2022-10-22T06:56:26.154Z,102189.08
2022-10-22T06:57:28.052Z,102198.66
2022-10-22T06:58:29.908Z,102193.52
2022-10-22T06:59:31.768Z,102191.78
2022-10-22T07:01:35.384Z,102190.86
2022-10-22T07:02:37.300Z,102191.73
2022-10-22T07:03:39.114Z,102194.39
2022-10-22T07:04:40.959Z,102188.37
2022-10-22T07:05:42.762Z,102191.90
2022-10-22T07:06:44.598Z,102193.73
2022-10-22T07:07:46.460Z,102191.95
2022-10-22T07:08:48.769Z,102194.55
2022-10-22T07:09:51.529Z,102191.95
2022-10-22T07:10:53.539Z,102193.68
2022-10-22T07:11:55.370Z,102196.34
2022-10-22T07:12:57.254Z,102188.53
2022-10-22T07:13:59.291Z,102185.03
2022-10-22T07:15:01.126Z,102185.03
2022-10-22T07:16:02.953Z,102185.03
2022-10-22T07:17:04.786Z,102189.41
2022-10-22T07:18:06.690Z,102192.01
2022-10-22T07:19:08.541Z,102192.88
2022-10-22T07:20:11.242Z,102185.98
2022-10-22T07:21:13.090Z,102191.25
2022-10-22T07:22:14.911Z,102191.25
2022-10-22T07:23:16.813Z,102188.70
2022-10-22T07:24:18.641Z,102193.95
2022-10-22T07:25:20.476Z,102195.73
2022-10-22T07:26:22.298Z,102195.73
2022-10-22T07:27:24.153Z,102194.02
2022-10-22T07:28:26.243Z,102194.02
2022-10-22T07:29:28.094Z,102197.43
2022-10-22T07:30:29.905Z,102191.41
2022-10-22T07:31:31.761Z,102194.02
2022-10-22T07:32:33.543Z,102188.81
2022-10-22T07:33:35.389Z,102187.94
2022-10-22T07:34:38.498Z,102189.69
2022-10-22T07:35:40.795Z,102187.09
2022-10-22T07:36:42.812Z,102182.79
2022-10-22T07:37:44.611Z,102180.19
2022-10-22T07:38:46.463Z,102184.54
2022-10-22T07:39:48.679Z,102179.34
2022-10-22T07:40:50.614Z,102178.46
2022-10-22T07:41:52.400Z,102181.02
2022-10-22T07:42:54.199Z,102185.39
2022-10-22T07:43:56.055Z,102180.14
2022-10-22T07:44:57.855Z,102177.59
2022-10-22T07:45:59.655Z,102177.59
2022-10-22T07:47:01.489Z,102170.66
2022-10-22T07:48:03.293Z,102179.39
2022-10-22T07:49:05.151Z,102185.55
2022-10-22T07:50:07.555Z,102183.94
2022-10-22T07:51:09.371Z,102179.66
2022-10-22T07:52:11.192Z,102179.66
2022-10-22T07:53:12.987Z,102178.79
2022-10-22T07:54:14.834Z,102181.33
2022-10-22T07:55:16.658Z,102181.33
2022-10-22T07:56:19.255Z,102177.01
2022-10-22T07:57:21.045Z,102176.19
2022-10-22T07:58:22.846Z,102180.56
2022-10-22T07:59:24.690Z,102177.11
2022-10-22T08:00:26.603Z,102181.50
2022-10-22T08:01:28.378Z,102184.16
2022-10-22T08:02:30.160Z,102177.17
2022-10-22T08:03:31.959Z,102184.97
2022-10-22T08:04:33.708Z,102174.56
2022-10-22T08:05:35.508Z,102179.82
2022-10-22T08:06:37.338Z,102172.92
2022-10-22T08:07:39.171Z,102179.05
2022-10-22T08:08:40.993Z,102171.30
2022-10-22T08:09:42.803Z,102184.31
2022-10-22T08:10:44.710Z,102179.16
2022-10-22T08:11:46.503Z,102187.88
2022-10-22T08:12:48.719Z,102183.55
2022-10-22T08:13:50.538Z,102183.63
2022-10-22T08:14:52.542Z,102188.02
2022-10-22T08:15:57.325Z,102179.30
2022-10-22T08:16:58.504Z,102180.27
2022-10-22T08:18:00.299Z,102188.94
2022-10-22T08:19:02.100Z,102186.34
2022-10-22T08:20:04.042Z,102182.02
2022-10-22T08:21:05.826Z,102181.19
2022-10-22T08:22:07.633Z,102184.72
2022-10-22T08:23:09.464Z,102180.37
2022-10-22T08:24:11.421Z,102176.03
2022-10-22T08:25:13.297Z,102174.31
2022-10-22T08:26:15.295Z,102177.81
2022-10-22T08:27:17.155Z,102167.47
2022-10-22T08:28:21.263Z,102173.59
2022-10-22T08:30:43.840Z,102176.30
2022-10-22T08:31:45.659Z,102172.87
2022-10-22T08:32:49.325Z,102170.27
2022-10-22T08:33:51.095Z,102171.14
2022-10-22T08:34:52.887Z,102172.02
2022-10-22T08:35:54.763Z,102177.36
2022-10-22T08:36:57.068Z,102179.11
2022-10-22T08:37:58.885Z,102184.36
2022-10-22T08:39:00.668Z,102179.11
2022-10-22T08:40:02.481Z,102171.30
2022-10-22T08:41:04.319Z,102174.81
2022-10-22T08:42:06.136Z,102173.03
2022-10-22T08:43:07.926Z,102165.27
2022-10-22T08:44:09.636Z,102167.00
2022-10-22T08:45:11.450Z,102164.41
2022-10-22T08:46:14.215Z,102165.27
2022-10-22T08:47:18.715Z,102159.20
2022-10-22T08:48:19.675Z,102161.84
2022-10-22T08:49:21.497Z,102163.59
2022-10-22T08:50:23.271Z,102160.12
2022-10-22T08:51:25.122Z,102165.33
2022-10-22T08:52:26.948Z,102158.39
2022-10-22T08:53:28.733Z,102163.65
2022-10-22T08:54:30.542Z,102154.20
2022-10-22T08:55:36.558Z,102155.99
2022-10-22T08:56:35.998Z,102149.97
2022-10-22T08:57:37.811Z,102158.70
2022-10-22T08:58:39.602Z,102153.49
2022-10-22T08:59:41.398Z,102151.80
2022-10-22T09:00:43.196Z,102146.64
2022-10-22T09:01:46.261Z,102151.84
2022-10-22T09:02:48.355Z,102157.09
2022-10-22T09:03:50.152Z,102160.62
2022-10-22T09:04:51.964Z,102148.48
2022-10-22T09:05:53.772Z,102143.28
2022-10-22T09:06:55.607Z,102156.34
2022-10-22T09:07:57.409Z,102142.45
2022-10-22T09:08:59.284Z,102147.71
2022-10-22T09:10:02.275Z,102152.09
2022-10-22T09:11:05.901Z,102152.14
2022-10-22T09:12:07.740Z,102152.97
2022-10-22T09:13:09.540Z,102144.38
2022-10-22T09:14:11.393Z,102153.06
2022-10-22T09:15:13.239Z,102146.21
2022-10-22T09:16:15.956Z,102138.45
2022-10-22T09:17:17.815Z,102146.36
2022-10-22T09:18:19.673Z,102142.02
2022-10-22T09:19:21.485Z,102149.02
2022-10-22T09:20:23.193Z,102149.06
2022-10-22T09:21:25.423Z,102148.20
2022-10-22T09:22:27.554Z,102148.25
2022-10-22T09:23:29.331Z,102151.77
2022-10-22T09:24:32.910Z,102141.34
2022-10-22T09:25:34.745Z,102144.88
2022-10-22T09:26:36.547Z,102146.65
2022-10-22T09:27:38.697Z,102145.02
2022-10-22T09:28:40.843Z,102142.45
2022-10-22T09:29:42.645Z,102145.06
2022-10-22T09:30:44.966Z,102137.25
2022-10-22T09:31:46.747Z,102133.87
2022-10-22T09:32:48.597Z,102128.66
2022-10-22T09:33:50.415Z,102130.44
2022-10-22T09:34:52.117Z,102125.27
2022-10-22T09:35:53.919Z,102132.28
2022-10-22T09:36:55.823Z,102128.02
2022-10-22T09:37:57.702Z,102128.02
2022-10-22T09:38:59.476Z,102120.20
2022-10-22T09:40:01.285Z,102122.91
2022-10-22T09:41:03.145Z,102124.61
2022-10-22T09:42:04.912Z,102120.30
2022-10-22T09:43:06.778Z,102121.17
2022-10-22T09:44:08.605Z,102119.39
2022-10-22T09:45:10.447Z,102112.48
2022-10-22T09:46:13.599Z,102115.92
2022-10-22T09:47:15.417Z,102113.36
2022-10-22T09:48:17.313Z,102105.55
2022-10-22T09:49:19.170Z,102109.88
2022-10-22T09:50:20.978Z,102113.36
2022-10-22T09:51:22.793Z,102109.92
2022-10-22T09:52:24.621Z,102115.14
2022-10-22T09:53:26.514Z,102109.92
2022-10-22T09:54:28.347Z,102102.98
2022-10-22T09:55:30.164Z,102110.02
2022-10-22T09:56:31.993Z,102108.28
2022-10-22T09:57:33.832Z,102110.94
2022-10-22T09:58:35.718Z,102110.94
2022-10-22T09:59:37.547Z,102105.77
2022-10-22T10:00:39.789Z,102110.16
2022-10-22T10:01:41.629Z,102104.12
2022-10-22T10:02:43.486Z,102104.12
2022-10-22T10:03:45.431Z,102111.94
2022-10-22T10:04:47.292Z,102113.59
2022-10-22T10:05:49.730Z,102110.98
2022-10-22T10:06:51.573Z,102108.33
2022-10-22T10:07:53.407Z,102110.11
2022-10-22T10:08:55.332Z,102107.46
2022-10-22T10:09:57.155Z,102114.38
2022-10-22T10:10:59.010Z,102111.72
2022-10-22T10:12:00.821Z,102101.25
2022-10-22T10:13:02.639Z,102096.91
2022-10-22T10:14:04.506Z,102098.60
2022-10-22T10:15:06.358Z,102108.20
2022-10-22T10:16:08.294Z,102104.77
2022-10-22T10:17:10.136Z,102096.09
2022-10-22T10:18:11.976Z,102096.05
2022-10-22T10:19:13.843Z,102100.38
2022-10-22T10:20:16.073Z,102101.25
2022-10-22T10:21:17.820Z,102095.17
2022-10-22T10:22:19.661Z,102091.69
2022-10-22T10:23:23.122Z,102096.95
2022-10-22T10:24:25.295Z,102087.36
2022-10-22T10:25:27.108Z,102092.61
2022-10-22T10:26:28.948Z,102090.00
2022-10-22T10:27:30.777Z,102090.00
2022-10-22T10:28:32.595Z,102094.30
2022-10-22T10:29:34.506Z,102089.96
2022-10-22T10:30:36.388Z,102089.09
2022-10-22T10:31:38.222Z,102089.09
2022-10-22T10:32:40.423Z,102090.87
2022-10-22T10:33:42.472Z,102087.40
2022-10-22T10:34:44.321Z,102089.17
2022-10-22T10:35:46.154Z,102087.45
2022-10-22T10:36:47.980Z,102087.45
2022-10-22T10:37:49.881Z,102085.72
2022-10-22T10:38:51.650Z,102083.11
2022-10-22T10:39:53.514Z,102082.28
2022-10-22T10:40:55.387Z,102084.89
2022-10-22T10:41:57.219Z,102084.89
2022-10-22T10:42:59.255Z,102077.11
2022-10-22T10:44:01.074Z,102072.77
2022-10-22T10:45:02.980Z,102075.38
2022-10-22T10:46:04.986Z,102073.64
2022-10-22T10:47:06.857Z,102070.16
2022-10-22T10:48:08.681Z,102067.55
2022-10-22T10:49:10.553Z,102062.34
2022-10-22T10:50:13.323Z,102065.83
2022-10-22T10:51:15.218Z,102061.44
2022-10-22T10:52:20.361Z,102061.44
2022-10-22T10:53:20.699Z,102059.73
2022-10-22T10:54:22.530Z,102063.22
2022-10-22T10:55:24.415Z,102057.13
2022-10-22T10:56:26.250Z,102055.41
2022-10-22T10:57:28.066Z,102054.58
2022-10-22T10:58:29.932Z,102049.32
2022-10-22T10:59:31.767Z,102048.45
2022-10-22T11:00:33.618Z,102044.98
2022-10-22T11:01:35.489Z,102045.86
2022-10-22T11:02:37.308Z,102037.99
2022-10-22T11:03:39.131Z,102047.59
2022-10-22T11:04:40.959Z,102045.81
2022-10-22T11:05:42.832Z,102037.99
2022-10-22T11:06:44.878Z,102041.50
2022-10-22T11:07:49.581Z,102044.16
2022-10-22T11:08:50.501Z,102042.42
2022-10-22T11:09:52.382Z,102042.47
2022-10-22T11:10:54.270Z,102038.98
2022-10-22T11:11:56.175Z,102027.66
2022-10-22T11:12:58.004Z,102033.78
2022-10-22T11:13:59.876Z,102038.98
2022-10-22T11:15:01.784Z,102038.08
2022-10-22T11:16:04.724Z,102034.61
2022-10-22T11:17:06.630Z,102043.25
2022-10-22T11:18:08.517Z,102034.61
2022-10-22T11:19:11.281Z,102033.73
2022-10-22T11:20:14.731Z,102032.00
2022-10-22T11:21:18.177Z,102038.12
2022-10-22T11:22:26.495Z,102025.10
2022-10-22T11:23:26.243Z,102030.31
2022-10-22T11:24:28.122Z,102026.92
2022-10-22T11:25:29.996Z,102020.84
2022-10-22T11:26:33.273Z,102017.37
2022-10-22T11:27:35.149Z,102013.89
2022-10-22T11:28:37.409Z,102012.16
2022-10-22T11:29:39.279Z,102006.95
2022-10-22T11:30:41.167Z,102007.86
2022-10-22T11:31:43.502Z,102010.45
2022-10-22T11:32:49.784Z,102021.75
2022-10-22T11:33:49.061Z,102018.27
2022-10-22T11:34:51.437Z,102014.81
2022-10-22T11:35:53.289Z,102016.55
2022-10-22T11:36:55.686Z,102010.45
2022-10-22T11:37:59.688Z,102005.25
2022-10-22T11:39:01.818Z,102008.73
2022-10-22T11:40:04.872Z,102006.13
2022-10-22T11:41:06.751Z,102000.91
2022-10-22T11:42:10.130Z,102001.78
2022-10-22T11:43:11.985Z,102000.91
2022-10-22T11:44:14.275Z,101998.34
2022-10-22T11:45:17.378Z,101994.00
2022-10-22T11:46:20.914Z,101995.73
2022-10-22T11:47:23.789Z,101987.97
2022-10-22T11:48:25.656Z,101996.66
2022-10-22T11:49:28.851Z,101989.74
2022-10-22T11:50:30.722Z,101983.59
2022-10-22T11:51:32.556Z,101987.97
2022-10-22T11:52:34.502Z,101987.09
2022-10-22T11:53:36.387Z,101987.97
2022-10-22T11:54:39.379Z,101990.61